sensor_id;sensor_type;location;lat;lon;timestamp;pressure;altitude;pressure_sealevel;temperature;humidity
5753;BME280;2901;42.140;24.760;2023-03-14T00:00:37;99951.41;;;5.35;67.35
5753;BME280;2901;42.140;24.760;2023-03-14T00:03:03;99950.53;;;5.35;67.44
5753;BME280;2901;42.140;24.760;2023-03-14T00:05:28;99942.00;;;5.36;67.45
5753;BME280;2901;42.140;24.760;2023-03-14T00:07:54;99945.53;;;5.41;67.11
5753;BME280;2901;42.140;24.760;2023-03-14T00:10:20;99939.50;;;5.39;66.85
5753;BME280;2901;42.140;24.760;2023-03-14T00:12:45;99942.88;;;5.38;67.46
5753;BME280;2901;42.140;24.760;2023-03-14T00:15:11;99937.81;;;5.39;67.37
5753;BME280;2901;42.140;24.760;2023-03-14T00:17:37;99933.53;;;5.40;67.68
5753;BME280;2901;42.140;24.760;2023-03-14T00:20:05;99933.50;;;5.38;67.72
5753;BME280;2901;42.140;24.760;2023-03-14T00:22:36;99928.34;;;5.37;67.68
5753;BME280;2901;42.140;24.760;2023-03-14T00:25:03;99917.97;;;5.34;67.71
5753;BME280;2901;42.140;24.760;2023-03-14T00:27:28;99916.28;;;5.34;67.79
5753;BME280;2901;42.140;24.760;2023-03-14T00:29:54;99909.44;;;5.33;67.97
5753;BME280;2901;42.140;24.760;2023-03-14T00:32:19;99912.78;;;5.31;67.64
5753;BME280;2901;42.140;24.760;2023-03-14T00:34:44;99911.91;;;5.29;67.49
5753;BME280;2901;42.140;24.760;2023-03-14T00:37:10;99904.81;;;5.18;68.47
5753;BME280;2901;42.140;24.760;2023-03-14T00:39:35;99907.22;;;5.09;68.71
5753;BME280;2901;42.140;24.760;2023-03-14T00:42:01;99905.91;;;4.91;69.83
5753;BME280;2901;42.140;24.760;2023-03-14T00:44:26;99889.44;;;4.81;70.78
5753;BME280;2901;42.140;24.760;2023-03-14T00:46:51;99898.53;;;4.67;70.52
5753;BME280;2901;42.140;24.760;2023-03-14T00:49:17;99898.31;;;4.58;71.16
5753;BME280;2901;42.140;24.760;2023-03-14T00:51:42;99894.78;;;4.53;71.47
5753;BME280;2901;42.140;24.760;2023-03-14T00:54:08;99896.44;;;4.51;71.86
5753;BME280;2901;42.140;24.760;2023-03-14T00:56:33;99886.88;;;4.44;71.90
5753;BME280;2901;42.140;24.760;2023-03-14T00:58:59;99887.75;;;4.44;72.54
5753;BME280;2901;42.140;24.760;2023-03-14T01:01:24;99886.06;;;4.46;73.04
5753;BME280;2901;42.140;24.760;2023-03-14T01:03:54;99874.81;;;4.41;72.99
5753;BME280;2901;42.140;24.760;2023-03-14T01:06:22;99868.13;;;4.46;73.57
5753;BME280;2901;42.140;24.760;2023-03-14T01:08:49;99873.38;;;4.51;73.92
5753;BME280;2901;42.140;24.760;2023-03-14T01:11:22;99863.22;;;4.55;73.05
5753;BME280;2901;42.140;24.760;2023-03-14T01:13:48;99868.38;;;4.57;72.43
5753;BME280;2901;42.140;24.760;2023-03-14T01:16:15;99859.84;;;4.58;72.84
5753;BME280;2901;42.140;24.760;2023-03-14T01:18:43;99850.50;;;4.60;73.16
5753;BME280;2901;42.140;24.760;2023-03-14T01:21:20;99854.88;;;4.64;73.89
5753;BME280;2901;42.140;24.760;2023-03-14T01:23:47;99842.06;;;4.65;73.83
5753;BME280;2901;42.140;24.760;2023-03-14T01:26:14;99845.63;;;4.72;72.67
5753;BME280;2901;42.140;24.760;2023-03-14T01:28:40;99846.56;;;4.76;71.80
5753;BME280;2901;42.140;24.760;2023-03-14T01:31:08;99840.56;;;4.75;72.20
5753;BME280;2901;42.140;24.760;2023-03-14T01:33:34;99846.50;;;4.72;71.66
5753;BME280;2901;42.140;24.760;2023-03-14T01:36:00;99852.53;;;4.75;71.82
5753;BME280;2901;42.140;24.760;2023-03-14T01:38:29;99837.00;;;4.68;72.06
5753;BME280;2901;42.140;24.760;2023-03-14T01:40:54;99845.56;;;4.67;72.29
5753;BME280;2901;42.140;24.760;2023-03-14T01:43:20;99848.00;;;4.63;72.36
5753;BME280;2901;42.140;24.760;2023-03-14T01:48:39;99836.06;;;4.63;72.74
5753;BME280;2901;42.140;24.760;2023-03-14T01:51:12;99846.25;;;4.62;72.58
5753;BME280;2901;42.140;24.760;2023-03-14T01:53:41;99840.25;;;4.61;72.95
5753;BME280;2901;42.140;24.760;2023-03-14T01:56:09;99835.13;;;4.61;73.09
5753;BME280;2901;42.140;24.760;2023-03-14T01:58:37;99834.31;;;4.62;73.08
5753;BME280;2901;42.140;24.760;2023-03-14T02:01:06;99810.91;;;4.47;73.25
5753;BME280;2901;42.140;24.760;2023-03-14T02:03:37;99835.06;;;4.58;73.38
5753;BME280;2901;42.140;24.760;2023-03-14T02:06:06;99824.81;;;4.58;73.53
5753;BME280;2901;42.140;24.760;2023-03-14T02:08:33;99824.53;;;4.46;73.91
5753;BME280;2901;42.140;24.760;2023-03-14T02:11:00;99819.38;;;4.45;74.16
5753;BME280;2901;42.140;24.760;2023-03-14T02:13:25;99822.72;;;4.41;74.62
5753;BME280;2901;42.140;24.760;2023-03-14T02:15:51;99824.47;;;4.43;74.57
5753;BME280;2901;42.140;24.760;2023-03-14T02:18:17;99826.13;;;4.41;74.97
5753;BME280;2901;42.140;24.760;2023-03-14T02:26:19;99810.66;;;4.37;74.74
5753;BME280;2901;42.140;24.760;2023-03-14T02:28:48;99806.34;;;4.36;74.55
5753;BME280;2901;42.140;24.760;2023-03-14T02:31:15;99801.09;;;4.30;74.46
5753;BME280;2901;42.140;24.760;2023-03-14T02:33:40;99821.84;;;4.42;74.14
5753;BME280;2901;42.140;24.760;2023-03-14T02:36:09;99819.22;;;4.39;74.54
5753;BME280;2901;42.140;24.760;2023-03-14T02:38:42;99819.91;;;4.32;74.15
5753;BME280;2901;42.140;24.760;2023-03-14T02:41:09;99824.16;;;4.30;73.86
5753;BME280;2901;42.140;24.760;2023-03-14T02:43:35;99822.47;;;4.32;74.01
5753;BME280;2901;42.140;24.760;2023-03-14T02:46:01;99819.06;;;4.31;74.15
5753;BME280;2901;42.140;24.760;2023-03-14T02:48:38;99821.63;;;4.31;74.83
5753;BME280;2901;42.140;24.760;2023-03-14T02:51:05;99825.97;;;4.35;74.25
5753;BME280;2901;42.140;24.760;2023-03-14T02:53:33;99829.41;;;4.36;73.88
5753;BME280;2901;42.140;24.760;2023-03-14T02:55:59;99813.00;;;4.28;73.65
5753;BME280;2901;42.140;24.760;2023-03-14T02:58:26;99832.91;;;4.38;73.64
5753;BME280;2901;42.140;24.760;2023-03-14T03:00:51;99827.78;;;4.39;74.09
5753;BME280;2901;42.140;24.760;2023-03-14T03:03:17;99826.13;;;4.41;74.05
5753;BME280;2901;42.140;24.760;2023-03-14T03:05:43;99830.47;;;4.44;74.42
5753;BME280;2901;42.140;24.760;2023-03-14T03:08:09;99833.00;;;4.42;74.46
5753;BME280;2901;42.140;24.760;2023-03-14T03:10:35;99835.59;;;4.44;74.23
5753;BME280;2901;42.140;24.760;2023-03-14T03:13:01;99834.72;;;4.43;74.85
5753;BME280;2901;42.140;24.760;2023-03-14T03:15:26;99837.09;;;4.34;75.99
5753;BME280;2901;42.140;24.760;2023-03-14T03:17:52;99839.66;;;4.34;75.55
5753;BME280;2901;42.140;24.760;2023-03-14T03:20:17;99836.22;;;4.34;76.58
5753;BME280;2901;42.140;24.760;2023-03-14T03:22:43;99838.78;;;4.34;76.51
5753;BME280;2901;42.140;24.760;2023-03-14T03:25:09;99829.41;;;4.36;76.64
5753;BME280;2901;42.140;24.760;2023-03-14T03:27:36;99837.25;;;4.42;77.02
5753;BME280;2901;42.140;24.760;2023-03-14T03:30:03;99834.75;;;4.45;76.94
5753;BME280;2901;42.140;24.760;2023-03-14T03:32:29;99821.94;;;4.45;76.54
5753;BME280;2901;42.140;24.760;2023-03-14T03:34:54;99832.19;;;4.45;76.77
5753;BME280;2901;42.140;24.760;2023-03-14T03:37:19;99819.22;;;4.37;76.83
5753;BME280;2901;42.140;24.760;2023-03-14T03:39:45;99832.91;;;4.38;76.99
5753;BME280;2901;42.140;24.760;2023-03-14T03:42:10;99827.78;;;4.38;77.52
5753;BME280;2901;42.140;24.760;2023-03-14T03:44:36;99824.28;;;4.34;77.07
5753;BME280;2901;42.140;24.760;2023-03-14T03:47:01;99824.41;;;4.42;78.43
5753;BME280;2901;42.140;24.760;2023-03-14T03:49:31;99831.19;;;4.38;79.36
5753;BME280;2901;42.140;24.760;2023-03-14T03:51:57;99831.97;;;4.36;79.76
5753;BME280;2901;42.140;24.760;2023-03-14T03:54:22;99830.16;;;4.32;80.47
5753;BME280;2901;42.140;24.760;2023-03-14T03:56:48;99832.03;;;4.37;80.85
5753;BME280;2901;42.140;24.760;2023-03-14T03:59:13;99829.53;;;4.40;79.85
5753;BME280;2901;42.140;24.760;2023-03-14T04:01:39;99818.28;;;4.34;79.57
5753;BME280;2901;42.140;24.760;2023-03-14T04:04:05;99814.09;;;4.37;79.24
5753;BME280;2901;42.140;24.760;2023-03-14T04:06:30;99804.84;;;4.44;78.70
5753;BME280;2901;42.140;24.760;2023-03-14T04:08:55;99815.03;;;4.42;79.45
5753;BME280;2901;42.140;24.760;2023-03-14T04:11:21;99805.66;;;4.43;79.94
5753;BME280;2901;42.140;24.760;2023-03-14T04:13:46;99806.53;;;4.43;80.44
5753;BME280;2901;42.140;24.760;2023-03-14T04:16:17;99805.78;;;4.47;80.08
5753;BME280;2901;42.140;24.760;2023-03-14T04:18:43;99790.41;;;4.47;78.66
5753;BME280;2901;42.140;24.760;2023-03-14T04:21:09;99808.41;;;4.52;79.29
5753;BME280;2901;42.140;24.760;2023-03-14T04:23:34;99799.03;;;4.51;79.35
5753;BME280;2901;42.140;24.760;2023-03-14T04:26:00;99794.66;;;4.48;79.24
5753;BME280;2901;42.140;24.760;2023-03-14T04:28:25;99781.53;;;4.35;78.98
5753;BME280;2901;42.140;24.760;2023-03-14T04:30:51;99791.09;;;4.42;78.78
5753;BME280;2901;42.140;24.760;2023-03-14T04:33:16;99795.34;;;4.41;78.36
5753;BME280;2901;42.140;24.760;2023-03-14T04:35:45;99791.00;;;4.37;78.85
5753;BME280;2901;42.140;24.760;2023-03-14T04:38:11;99793.50;;;4.34;79.44
5753;BME280;2901;42.140;24.760;2023-03-14T04:40:40;99789.16;;;4.32;80.27
5753;BME280;2901;42.140;24.760;2023-03-14T04:43:07;99784.94;;;4.34;79.98
5753;BME280;2901;42.140;24.760;2023-03-14T04:45:32;99784.03;;;4.32;79.84
5753;BME280;2901;42.140;24.760;2023-03-14T04:47:58;99787.50;;;4.34;80.18
5753;BME280;2901;42.140;24.760;2023-03-14T04:50:23;99790.94;;;4.34;80.26
5753;BME280;2901;42.140;24.760;2023-03-14T04:52:49;99792.63;;;4.34;80.28
5753;BME280;2901;42.140;24.760;2023-03-14T04:55:14;99796.03;;;4.33;79.61
5753;BME280;2901;42.140;24.760;2023-03-14T04:57:39;99798.53;;;4.30;80.25
5753;BME280;2901;42.140;24.760;2023-03-14T05:00:05;99796.81;;;4.30;80.14
5753;BME280;2901;42.140;24.760;2023-03-14T05:02:31;99801.88;;;4.27;79.75
5753;BME280;2901;42.140;24.760;2023-03-14T05:04:57;99799.19;;;4.23;79.89
5753;BME280;2901;42.140;24.760;2023-03-14T05:07:22;99814.09;;;4.39;80.26
5753;BME280;2901;42.140;24.760;2023-03-14T05:09:47;99804.16;;;4.51;79.95
5753;BME280;2901;42.140;24.760;2023-03-14T05:12:13;99812.94;;;4.62;79.69
5753;BME280;2901;42.140;24.760;2023-03-14T05:14:38;99814.63;;;4.61;79.22
5753;BME280;2901;42.140;24.760;2023-03-14T05:17:04;99816.19;;;4.55;79.97
5753;BME280;2901;42.140;24.760;2023-03-14T05:19:30;99816.72;;;4.40;79.08
5753;BME280;2901;42.140;24.760;2023-03-14T05:21:56;99813.16;;;4.34;79.44
5753;BME280;2901;42.140;24.760;2023-03-14T05:24:21;99820.75;;;4.31;80.03
5753;BME280;2901;42.140;24.760;2023-03-14T05:26:46;99823.41;;;4.34;80.30
5753;BME280;2901;42.140;24.760;2023-03-14T05:29:12;99825.09;;;4.33;81.04
5753;BME280;2901;42.140;24.760;2023-03-14T05:31:37;99825.09;;;4.35;81.52
5753;BME280;2901;42.140;24.760;2023-03-14T05:34:03;99823.53;;;4.40;82.06
5753;BME280;2901;42.140;24.760;2023-03-14T05:36:28;99824.47;;;4.43;81.79
5753;BME280;2901;42.140;24.760;2023-03-14T05:38:53;99825.47;;;4.50;81.74
5753;BME280;2901;42.140;24.760;2023-03-14T05:41:19;99818.69;;;4.52;81.80
5753;BME280;2901;42.140;24.760;2023-03-14T05:43:44;99826.50;;;4.56;81.57
5753;BME280;2901;42.140;24.760;2023-03-14T05:46:09;99822.38;;;4.64;81.92
5753;BME280;2901;42.140;24.760;2023-03-14T05:48:35;99813.00;;;4.65;80.62
5753;BME280;2901;42.140;24.760;2023-03-14T05:51:00;99816.56;;;4.71;80.33
5753;BME280;2901;42.140;24.760;2023-03-14T05:53:25;99818.56;;;4.85;79.07
5753;BME280;2901;42.140;24.760;2023-03-14T05:55:54;99816.19;;;4.94;79.85
5753;BME280;2901;42.140;24.760;2023-03-14T05:58:20;99817.03;;;4.93;79.56
5753;BME280;2901;42.140;24.760;2023-03-14T06:00:46;99828.34;;;5.02;78.37
5753;BME280;2901;42.140;24.760;2023-03-14T06:03:12;99825.91;;;5.08;78.58
5753;BME280;2901;42.140;24.760;2023-03-14T06:05:37;99820.88;;;5.13;77.13
5753;BME280;2901;42.140;24.760;2023-03-14T06:08:03;99825.47;;;5.29;76.43
5753;BME280;2901;42.140;24.760;2023-03-14T06:10:28;99820.47;;;5.35;75.83
5753;BME280;2901;42.140;24.760;2023-03-14T06:12:53;99824.84;;;5.41;75.42
5753;BME280;2901;42.140;24.760;2023-03-14T06:15:19;99818.94;;;5.45;75.09
5753;BME280;2901;42.140;24.760;2023-03-14T06:17:44;99818.81;;;5.39;74.27
5753;BME280;2901;42.140;24.760;2023-03-14T06:20:10;99796.41;;;5.30;74.90
5753;BME280;2901;42.140;24.760;2023-03-14T06:22:36;99816.25;;;5.39;74.92
5753;BME280;2901;42.140;24.760;2023-03-14T06:25:02;99814.66;;;5.45;74.42
5753;BME280;2901;42.140;24.760;2023-03-14T06:27:29;99799.34;;;5.50;73.83
5753;BME280;2901;42.140;24.760;2023-03-14T06:29:54;99801.94;;;5.51;73.66
5753;BME280;2901;42.140;24.760;2023-03-14T06:32:19;99806.28;;;5.55;73.41
5753;BME280;2901;42.140;24.760;2023-03-14T06:34:45;99802.91;;;5.58;73.46
5753;BME280;2901;42.140;24.760;2023-03-14T06:37:11;99801.97;;;5.53;73.92
5753;BME280;2901;42.140;24.760;2023-03-14T06:39:36;99803.50;;;5.43;74.46
5753;BME280;2901;42.140;24.760;2023-03-14T06:42:03;99813.13;;;5.55;74.86
5753;BME280;2901;42.140;24.760;2023-03-14T06:44:29;99817.50;;;5.59;75.45
5753;BME280;2901;42.140;24.760;2023-03-14T06:46:54;99819.03;;;5.51;74.82
5753;BME280;2901;42.140;24.760;2023-03-14T06:49:19;99815.84;;;5.62;75.29
5753;BME280;2901;42.140;24.760;2023-03-14T06:51:45;99810.91;;;5.74;74.39
5753;BME280;2901;42.140;24.760;2023-03-14T06:54:10;99810.28;;;5.86;74.49
5753;BME280;2901;42.140;24.760;2023-03-14T06:56:35;99802.03;;;6.02;72.74
5753;BME280;2901;42.140;24.760;2023-03-14T06:59:01;99798.84;;;6.18;73.09
5753;BME280;2901;42.140;24.760;2023-03-14T07:01:28;99782.59;;;6.22;72.61
5753;BME280;2901;42.140;24.760;2023-03-14T07:03:53;99783.44;;;6.18;72.39
5753;BME280;2901;42.140;24.760;2023-03-14T07:06:19;99789.50;;;6.23;71.73
5753;BME280;2901;42.140;24.760;2023-03-14T07:08:44;99781.13;;;6.35;71.03
5753;BME280;2901;42.140;24.760;2023-03-14T07:11:10;99786.38;;;6.46;71.07
5753;BME280;2901;42.140;24.760;2023-03-14T07:13:37;99777.84;;;6.47;69.95
5753;BME280;2901;42.140;24.760;2023-03-14T07:16:03;99772.84;;;6.59;70.13
5753;BME280;2901;42.140;24.760;2023-03-14T07:18:29;99761.81;;;6.66;69.42
5753;BME280;2901;42.140;24.760;2023-03-14T07:20:54;99762.75;;;6.72;70.30
5753;BME280;2901;42.140;24.760;2023-03-14T07:23:20;99761.16;;;6.81;69.06
5753;BME280;2901;42.140;24.760;2023-03-14T07:25:45;99761.31;;;6.91;68.50
5753;BME280;2901;42.140;24.760;2023-03-14T07:28:10;99755.59;;;7.19;67.68
5753;BME280;2901;42.140;24.760;2023-03-14T07:30:36;99748.88;;;7.30;66.92
5753;BME280;2901;42.140;24.760;2023-03-14T07:33:01;99753.34;;;7.50;66.22
5753;BME280;2901;42.140;24.760;2023-03-14T07:35:26;99753.44;;;7.59;66.19
5753;BME280;2901;42.140;24.760;2023-03-14T07:37:52;99744.22;;;7.83;64.72
5753;BME280;2901;42.140;24.760;2023-03-14T07:40:17;99742.34;;;7.66;64.22
5753;BME280;2901;42.140;24.760;2023-03-14T07:42:43;99746.72;;;7.76;64.17
5753;BME280;2901;42.140;24.760;2023-03-14T07:45:09;99747.56;;;7.75;63.22
5753;BME280;2901;42.140;24.760;2023-03-14T07:47:35;99738.91;;;7.65;63.48
5753;BME280;2901;42.140;24.760;2023-03-14T07:50:01;99736.50;;;7.88;62.68
5753;BME280;2901;42.140;24.760;2023-03-14T07:52:26;99737.50;;;8.02;61.76
5753;BME280;2901;42.140;24.760;2023-03-14T07:54:52;99728.91;;;8.05;61.67
5753;BME280;2901;42.140;24.760;2023-03-14T07:57:17;99728.16;;;8.16;60.46
5753;BME280;2901;42.140;24.760;2023-03-14T07:59:42;99723.00;;;8.19;60.10
5753;BME280;2901;42.140;24.760;2023-03-14T08:02:11;99732.69;;;8.51;58.67
5753;BME280;2901;42.140;24.760;2023-03-14T08:04:39;99730.91;;;8.41;58.53
5753;BME280;2901;42.140;24.760;2023-03-14T08:07:05;99727.41;;;8.31;59.32
5753;BME280;2901;42.140;24.760;2023-03-14T08:09:31;99718.00;;;8.41;59.47
5753;BME280;2901;42.140;24.760;2023-03-14T08:11:56;99724.97;;;8.60;58.65
5753;BME280;2901;42.140;24.760;2023-03-14T08:14:21;99722.44;;;8.70;58.43
5753;BME280;2901;42.140;24.760;2023-03-14T08:16:49;99716.38;;;8.61;56.82
5753;BME280;2901;42.140;24.760;2023-03-14T08:19:15;99722.41;;;8.58;57.10
5753;BME280;2901;42.140;24.760;2023-03-14T08:21:40;99719.06;;;8.79;56.31
5753;BME280;2901;42.140;24.760;2023-03-14T08:24:06;99714.78;;;8.87;55.82
5753;BME280;2901;42.140;24.760;2023-03-14T08:26:31;99713.09;;;8.89;55.83
5753;BME280;2901;42.140;24.760;2023-03-14T08:28:56;99717.41;;;8.98;56.36
5753;BME280;2901;42.140;24.760;2023-03-14T08:31:22;99711.31;;;8.80;55.77
5753;BME280;2901;42.140;24.760;2023-03-14T08:33:47;99704.53;;;9.11;55.48
5753;BME280;2901;42.140;24.760;2023-03-14T08:36:13;99708.91;;;9.38;52.67
5753;BME280;2901;42.140;24.760;2023-03-14T08:38:38;99701.16;;;9.56;54.13
5753;BME280;2901;42.140;24.760;2023-03-14T08:41:04;99690.81;;;9.82;52.57
5753;BME280;2901;42.140;24.760;2023-03-14T08:43:30;99684.75;;;10.06;50.47
5753;BME280;2901;42.140;24.760;2023-03-14T08:46:00;99692.50;;;10.28;50.70
5753;BME280;2901;42.140;24.760;2023-03-14T08:48:26;99682.09;;;10.53;49.70
5753;BME280;2901;42.140;24.760;2023-03-14T08:50:51;99684.63;;;10.69;49.35
5753;BME280;2901;42.140;24.760;2023-03-14T08:53:17;99663.88;;;10.74;48.62
5753;BME280;2901;42.140;24.760;2023-03-14T08:55:43;99660.41;;;10.79;48.16
5753;BME280;2901;42.140;24.760;2023-03-14T08:58:09;99660.34;;;10.91;47.73
5753;BME280;2901;42.140;24.760;2023-03-14T09:00:34;99652.56;;;10.96;47.02
5753;BME280;2901;42.140;24.760;2023-03-14T09:03:00;99651.66;;;10.97;46.84
5753;BME280;2901;42.140;24.760;2023-03-14T09:05:25;99636.06;;;11.03;46.08
5753;BME280;2901;42.140;24.760;2023-03-14T09:07:50;99639.69;;;10.78;45.31
5753;BME280;2901;42.140;24.760;2023-03-14T09:10:16;99629.38;;;10.67;45.68
5753;BME280;2901;42.140;24.760;2023-03-14T09:12:41;99630.16;;;10.86;45.47
5753;BME280;2901;42.140;24.760;2023-03-14T09:15:07;99621.56;;;10.76;45.15
5753;BME280;2901;42.140;24.760;2023-03-14T09:17:33;99618.91;;;10.88;45.00
5753;BME280;2901;42.140;24.760;2023-03-14T09:19:58;99612.91;;;10.80;45.13
5753;BME280;2901;42.140;24.760;2023-03-14T09:22:24;99613.91;;;10.51;45.67
5753;BME280;2901;42.140;24.760;2023-03-14T09:24:49;99609.56;;;10.59;45.42
5753;BME280;2901;42.140;24.760;2023-03-14T09:27:15;99607.84;;;10.55;45.31
5753;BME280;2901;42.140;24.760;2023-03-14T09:29:40;99604.34;;;10.65;45.11
5753;BME280;2901;42.140;24.760;2023-03-14T09:32:05;99590.50;;;10.75;44.43
5753;BME280;2901;42.140;24.760;2023-03-14T09:34:31;99588.81;;;10.68;43.95
5753;BME280;2901;42.140;24.760;2023-03-14T09:36:56;99578.38;;;10.83;44.29
5753;BME280;2901;42.140;24.760;2023-03-14T09:39:22;99573.13;;;10.87;43.93
5753;BME280;2901;42.140;24.760;2023-03-14T09:41:49;99562.69;;;11.01;43.63
5753;BME280;2901;42.140;24.760;2023-03-14T09:44:16;99574.63;;;11.22;43.71
5753;BME280;2901;42.140;24.760;2023-03-14T09:46:46;99576.25;;;11.35;43.46
5753;BME280;2901;42.140;24.760;2023-03-14T09:49:25;99566.53;;;11.58;42.39
5753;BME280;2901;42.140;24.760;2023-03-14T09:51:54;99567.31;;;11.68;42.05
5753;BME280;2901;42.140;24.760;2023-03-14T09:54:52;99566.44;;;11.67;42.45
5753;BME280;2901;42.140;24.760;2023-03-14T09:57:21;99566.34;;;11.81;41.98
5753;BME280;2901;42.140;24.760;2023-03-14T09:59:49;99563.53;;;11.99;41.63
5753;BME280;2901;42.140;24.760;2023-03-14T10:02:18;99561.72;;;12.07;40.99
5753;BME280;2901;42.140;24.760;2023-03-14T10:04:46;99565.06;;;12.18;41.39
5753;BME280;2901;42.140;24.760;2023-03-14T10:07:29;99539.06;;;12.20;40.64
5753;BME280;2901;42.140;24.760;2023-03-14T10:09:56;99552.91;;;12.20;41.38
5753;BME280;2901;42.140;24.760;2023-03-14T10:12:36;99537.28;;;12.23;41.07
5753;BME280;2901;42.140;24.760;2023-03-14T10:15:12;99519.84;;;12.33;40.91
5753;BME280;2901;42.140;24.760;2023-03-14T10:17:47;99518.13;;;12.33;38.72
5753;BME280;2901;42.140;24.760;2023-03-14T10:20:34;99514.88;;;12.18;39.10
5753;BME280;2901;42.140;24.760;2023-03-14T10:23:02;99509.00;;;12.04;40.53
5753;BME280;2901;42.140;24.760;2023-03-14T10:25:31;99501.78;;;12.27;40.99
5753;BME280;2901;42.140;24.760;2023-03-14T10:27:57;99495.56;;;12.37;40.92
5753;BME280;2901;42.140;24.760;2023-03-14T10:30:45;99484.19;;;12.47;40.69
5753;BME280;2901;42.140;24.760;2023-03-14T10:33:11;99486.16;;;12.30;41.16
5753;BME280;2901;42.140;24.760;2023-03-14T10:35:40;99483.81;;;12.12;41.40
5753;BME280;2901;42.140;24.760;2023-03-14T10:38:13;99479.44;;;12.14;41.08
5753;BME280;2901;42.140;24.760;2023-03-14T10:40:40;99480.50;;;11.99;41.62
5753;BME280;2901;42.140;24.760;2023-03-14T10:43:17;99474.44;;;12.00;41.64
5753;BME280;2901;42.140;24.760;2023-03-14T10:45:51;99463.06;;;12.10;42.78
5753;BME280;2901;42.140;24.760;2023-03-14T10:48:23;99448.25;;;12.17;42.25
5753;BME280;2901;42.140;24.760;2023-03-14T10:53:43;99435.75;;;12.43;41.74
5753;BME280;2901;42.140;24.760;2023-03-14T10:56:21;99432.69;;;12.73;41.20
5753;BME280;2901;42.140;24.760;2023-03-14T10:58:48;99425.38;;;12.96;39.88
5753;BME280;2901;42.140;24.760;2023-03-14T11:01:32;99428.72;;;13.01;39.42
5753;BME280;2901;42.140;24.760;2023-03-14T11:06:36;99413.22;;;12.97;39.16
5753;BME280;2901;42.140;24.760;2023-03-14T11:11:47;99397.25;;;13.20;39.04
5753;BME280;2901;42.140;24.760;2023-03-14T11:17:19;99379.72;;;13.29;38.77
5753;BME280;2901;42.140;24.760;2023-03-14T11:25:32;99354.19;;;13.49;37.79
5753;BME280;2901;42.140;24.760;2023-03-14T11:31:03;99324.16;;;13.75;37.43
5753;BME280;2901;42.140;24.760;2023-03-14T11:33:37;99308.53;;;13.75;37.09
5753;BME280;2901;42.140;24.760;2023-03-14T11:36:08;99318.72;;;13.85;37.00
5753;BME280;2901;42.140;24.760;2023-03-14T11:38:43;99317.41;;;14.03;36.95
5753;BME280;2901;42.140;24.760;2023-03-14T11:41:17;99314.84;;;14.01;37.19
5753;BME280;2901;42.140;24.760;2023-03-14T11:43:48;99305.09;;;14.10;37.25
5753;BME280;2901;42.140;24.760;2023-03-14T11:48:41;99294.97;;;13.99;37.88
5753;BME280;2901;42.140;24.760;2023-03-14T11:51:38;99282.97;;;14.27;37.25
5753;BME280;2901;42.140;24.760;2023-03-14T11:57:01;99261.06;;;14.36;37.31
5753;BME280;2901;42.140;24.760;2023-03-14T12:00:02;99252.06;;;14.14;37.73
5753;BME280;2901;42.140;24.760;2023-03-14T12:02:54;99244.34;;;14.11;38.14
5753;BME280;2901;42.140;24.760;2023-03-14T12:05:37;99235.50;;;14.16;37.66
5753;BME280;2901;42.140;24.760;2023-03-14T12:10:45;99211.31;;;14.46;37.70
5753;BME280;2901;42.140;24.760;2023-03-14T12:13:14;99193.50;;;14.62;37.81
5753;BME280;2901;42.140;24.760;2023-03-14T12:15:46;99189.13;;;14.64;37.38
5753;BME280;2901;42.140;24.760;2023-03-14T12:18:34;99183.81;;;14.67;37.78
5753;BME280;2901;42.140;24.760;2023-03-14T12:21:05;99183.25;;;14.87;37.68
5753;BME280;2901;42.140;24.760;2023-03-14T12:23:44;99173.66;;;15.17;37.39
5753;BME280;2901;42.140;24.760;2023-03-14T12:28:37;99161.72;;;15.37;36.82
5753;BME280;2901;42.140;24.760;2023-03-14T12:34:25;99154.59;;;14.85;37.97
5753;BME280;2901;42.140;24.760;2023-03-14T12:42:10;99137.00;;;15.50;37.44
5753;BME280;2901;42.140;24.760;2023-03-14T12:49:43;99122.53;;;15.67;37.34
5753;BME280;2901;42.140;24.760;2023-03-14T12:52:19;99127.44;;;15.76;37.01
5753;BME280;2901;42.140;24.760;2023-03-14T13:00:02;99120.31;;;15.54;37.91
5753;BME280;2901;42.140;24.760;2023-03-14T13:02:42;99117.00;;;15.49;37.87
5753;BME280;2901;42.140;24.760;2023-03-14T13:05:24;99111.78;;;15.49;38.00
5753;BME280;2901;42.140;24.760;2023-03-14T13:10:47;99107.53;;;15.73;37.33
5753;BME280;2901;42.140;24.760;2023-03-14T13:13:23;99104.16;;;15.70;37.64
5753;BME280;2901;42.140;24.760;2023-03-14T13:15:59;99102.34;;;15.72;37.17
5753;BME280;2901;42.140;24.760;2023-03-14T13:18:39;99094.47;;;15.73;36.82
5753;BME280;2901;42.140;24.760;2023-03-14T13:23:35;99088.16;;;15.54;36.76
5753;BME280;2901;42.140;24.760;2023-03-14T13:26:02;99080.44;;;15.51;37.15
5753;BME280;2901;42.140;24.760;2023-03-14T13:28:29;99080.75;;;15.40;36.90
5753;BME280;2901;42.140;24.760;2023-03-14T13:30:58;99079.63;;;15.49;37.12
5753;BME280;2901;42.140;24.760;2023-03-14T13:33:24;99081.78;;;15.63;36.93
5753;BME280;2901;42.140;24.760;2023-03-14T13:36:02;99071.22;;;15.66;36.74
5753;BME280;2901;42.140;24.760;2023-03-14T13:38:35;99062.63;;;15.64;37.17
5753;BME280;2901;42.140;24.760;2023-03-14T13:41:04;99063.41;;;15.66;36.57
5753;BME280;2901;42.140;24.760;2023-03-14T13:43:34;99049.13;;;15.76;36.62
5753;BME280;2901;42.140;24.760;2023-03-14T13:46:16;99040.81;;;15.65;36.58
5753;BME280;2901;42.140;24.760;2023-03-14T13:48:47;99040.81;;;15.65;36.33
5753;BME280;2901;42.140;24.760;2023-03-14T13:51:16;99026.63;;;15.72;36.30
5753;BME280;2901;42.140;24.760;2023-03-14T13:56:12;99015.97;;;15.78;36.82
5753;BME280;2901;42.140;24.760;2023-03-14T13:58:39;99008.97;;;15.80;36.93
5753;BME280;2901;42.140;24.760;2023-03-14T14:01:20;99008.31;;;15.73;37.02
5753;BME280;2901;42.140;24.760;2023-03-14T14:03:50;99005.94;;;15.67;37.16
5753;BME280;2901;42.140;24.760;2023-03-14T14:08:46;98991.47;;;15.82;37.21
5753;BME280;2901;42.140;24.760;2023-03-14T14:11:20;98988.53;;;15.91;36.76
5753;BME280;2901;42.140;24.760;2023-03-14T14:13:47;98986.00;;;15.89;36.35
5753;BME280;2901;42.140;24.760;2023-03-14T14:16:15;98983.31;;;15.91;36.77
5753;BME280;2901;42.140;24.760;2023-03-14T14:18:43;98966.22;;;16.05;36.43
5753;BME280;2901;42.140;24.760;2023-03-14T14:21:09;98975.25;;;16.20;35.86
5753;BME280;2901;42.140;24.760;2023-03-14T14:23:35;98966.00;;;16.35;35.79
5753;BME280;2901;42.140;24.760;2023-03-14T14:26:04;98968.56;;;16.59;35.24
5753;BME280;2901;42.140;24.760;2023-03-14T14:28:33;98957.00;;;16.65;35.10